sensor_id;sensor_type;location;lat;lon;timestamp;P1;durP1;ratioP1;P2;durP2;ratioP2
1847;SDS011;924;52.448;13.356;2023-04-10T00:01:31;34.93;;;28.67;;
1847;SDS011;924;52.448;13.356;2023-04-10T00:03:59;37.20;;;29.60;;
1847;SDS011;924;52.448;13.356;2023-04-10T00:06:24;34.83;;;28.70;;
1847;SDS011;924;52.448;13.356;2023-04-10T00:08:52;35.03;;;29.93;;
1847;SDS011;924;52.448;13.356;2023-04-10T00:11:17;34.33;;;28.80;;
1847;SDS011;924;52.448;13.356;2023-04-10T00:13:42;37.17;;;31.47;;
1847;SDS011;924;52.448;13.356;2023-04-10T00:16:07;39.20;;;28.10;;
1847;SDS011;924;52.448;13.356;2023-04-10T00:18:32;34.43;;;27.73;;
1847;SDS011;924;52.448;13.356;2023-04-10T00:20:58;33.20;;;28.30;;
1847;SDS011;924;52.448;13.356;2023-04-10T00:23:23;33.90;;;27.17;;
1847;SDS011;924;52.448;13.356;2023-04-10T00:25:48;35.47;;;29.43;;
1847;SDS011;924;52.448;13.356;2023-04-10T00:28:13;37.20;;;28.97;;
1847;SDS011;924;52.448;13.356;2023-04-10T00:30:40;37.67;;;29.60;;
1847;SDS011;924;52.448;13.356;2023-04-10T00:33:05;37.77;;;29.00;;
1847;SDS011;924;52.448;13.356;2023-04-10T00:35:30;34.17;;;28.23;;
1847;SDS011;924;52.448;13.356;2023-04-10T00:37:56;33.60;;;27.83;;
1847;SDS011;924;52.448;13.356;2023-04-10T00:40:21;36.43;;;30.33;;
1847;SDS011;924;52.448;13.356;2023-04-10T00:42:46;36.23;;;27.80;;
1847;SDS011;924;52.448;13.356;2023-04-10T00:45:12;39.07;;;29.30;;
1847;SDS011;924;52.448;13.356;2023-04-10T00:47:38;33.47;;;28.97;;
1847;SDS011;924;52.448;13.356;2023-04-10T00:50:04;33.47;;;27.10;;
1847;SDS011;924;52.448;13.356;2023-04-10T00:52:30;34.77;;;30.40;;
1847;SDS011;924;52.448;13.356;2023-04-10T00:54:56;31.77;;;27.97;;
1847;SDS011;924;52.448;13.356;2023-04-10T00:57:21;37.57;;;28.03;;
1847;SDS011;924;52.448;13.356;2023-04-10T00:59:46;38.30;;;29.07;;
1847;SDS011;924;52.448;13.356;2023-04-10T01:02:12;31.77;;;27.30;;
1847;SDS011;924;52.448;13.356;2023-04-10T01:04:38;39.13;;;27.50;;
1847;SDS011;924;52.448;13.356;2023-04-10T01:07:07;37.50;;;30.10;;
1847;SDS011;924;52.448;13.356;2023-04-10T01:12:24;33.50;;;26.20;;
1847;SDS011;924;52.448;13.356;2023-04-10T01:15:03;35.87;;;26.60;;
1847;SDS011;924;52.448;13.356;2023-04-10T01:17:48;33.20;;;28.00;;
1847;SDS011;924;52.448;13.356;2023-04-10T01:20:20;31.67;;;27.87;;
1847;SDS011;924;52.448;13.356;2023-04-10T01:31:12;33.70;;;27.23;;
1847;SDS011;924;52.448;13.356;2023-04-10T01:33:41;34.73;;;26.10;;
1847;SDS011;924;52.448;13.356;2023-04-10T01:36:09;33.43;;;28.07;;
1847;SDS011;924;52.448;13.356;2023-04-10T01:38:35;32.33;;;26.87;;
1847;SDS011;924;52.448;13.356;2023-04-10T01:41:03;29.67;;;25.30;;
1847;SDS011;924;52.448;13.356;2023-04-10T01:43:29;36.30;;;29.27;;
1847;SDS011;924;52.448;13.356;2023-04-10T01:45:56;31.43;;;25.27;;
1847;SDS011;924;52.448;13.356;2023-04-10T01:48:22;31.37;;;27.37;;
1847;SDS011;924;52.448;13.356;2023-04-10T01:50:47;33.77;;;26.50;;
1847;SDS011;924;52.448;13.356;2023-04-10T01:53:13;30.97;;;25.13;;
1847;SDS011;924;52.448;13.356;2023-04-10T01:55:38;32.27;;;26.20;;
1847;SDS011;924;52.448;13.356;2023-04-10T01:58:05;33.53;;;26.80;;
1847;SDS011;924;52.448;13.356;2023-04-10T02:00:36;28.30;;;24.13;;
1847;SDS011;924;52.448;13.356;2023-04-10T02:03:01;32.50;;;24.80;;
1847;SDS011;924;52.448;13.356;2023-04-10T02:05:27;33.73;;;27.00;;
1847;SDS011;924;52.448;13.356;2023-04-10T02:08:04;35.50;;;27.57;;
1847;SDS011;924;52.448;13.356;2023-04-10T02:10:37;37.23;;;28.23;;
1847;SDS011;924;52.448;13.356;2023-04-10T02:13:05;32.07;;;25.60;;
1847;SDS011;924;52.448;13.356;2023-04-10T02:15:31;29.30;;;26.10;;
1847;SDS011;924;52.448;13.356;2023-04-10T02:17:57;30.77;;;25.13;;
1847;SDS011;924;52.448;13.356;2023-04-10T02:20:23;34.00;;;26.33;;
1847;SDS011;924;52.448;13.356;2023-04-10T02:22:48;32.27;;;25.27;;
1847;SDS011;924;52.448;13.356;2023-04-10T02:25:13;35.40;;;27.47;;
1847;SDS011;924;52.448;13.356;2023-04-10T02:27:40;31.83;;;26.47;;
1847;SDS011;924;52.448;13.356;2023-04-10T02:30:05;31.43;;;25.73;;
1847;SDS011;924;52.448;13.356;2023-04-10T02:32:31;32.53;;;24.80;;
1847;SDS011;924;52.448;13.356;2023-04-10T02:34:57;30.87;;;26.30;;
1847;SDS011;924;52.448;13.356;2023-04-10T02:37:22;32.30;;;26.73;;
1847;SDS011;924;52.448;13.356;2023-04-10T02:39:48;35.87;;;26.90;;
1847;SDS011;924;52.448;13.356;2023-04-10T02:42:13;30.60;;;26.10;;
1847;SDS011;924;52.448;13.356;2023-04-10T02:44:38;33.50;;;26.13;;
1847;SDS011;924;52.448;13.356;2023-04-10T02:47:03;33.40;;;28.00;;
1847;SDS011;924;52.448;13.356;2023-04-10T02:49:29;33.53;;;24.67;;
1847;SDS011;924;52.448;13.356;2023-04-10T02:51:55;30.17;;;25.27;;
1847;SDS011;924;52.448;13.356;2023-04-10T02:54:20;31.40;;;25.53;;
1847;SDS011;924;52.448;13.356;2023-04-10T02:56:46;29.97;;;26.63;;
1847;SDS011;924;52.448;13.356;2023-04-10T02:59:11;29.60;;;23.87;;
1847;SDS011;924;52.448;13.356;2023-04-10T03:01:37;38.50;;;26.67;;
1847;SDS011;924;52.448;13.356;2023-04-10T03:04:03;31.73;;;26.97;;
1847;SDS011;924;52.448;13.356;2023-04-10T03:06:28;37.27;;;27.90;;
1847;SDS011;924;52.448;13.356;2023-04-10T03:08:54;37.67;;;28.17;;
1847;SDS011;924;52.448;13.356;2023-04-10T03:11:19;36.47;;;27.43;;
1847;SDS011;924;52.448;13.356;2023-04-10T03:13:44;30.00;;;25.40;;
1847;SDS011;924;52.448;13.356;2023-04-10T03:16:09;30.97;;;25.67;;
1847;SDS011;924;52.448;13.356;2023-04-10T03:18:35;29.40;;;26.20;;
1847;SDS011;924;52.448;13.356;2023-04-10T03:21:00;34.37;;;27.60;;
1847;SDS011;924;52.448;13.356;2023-04-10T03:23:28;35.10;;;26.70;;
1847;SDS011;924;52.448;13.356;2023-04-10T03:25:53;38.80;;;27.00;;
1847;SDS011;924;52.448;13.356;2023-04-10T03:28:22;35.93;;;28.73;;
1847;SDS011;924;52.448;13.356;2023-04-10T03:30:48;29.03;;;25.07;;
1847;SDS011;924;52.448;13.356;2023-04-10T03:33:13;37.00;;;28.07;;
1847;SDS011;924;52.448;13.356;2023-04-10T03:35:39;35.20;;;26.47;;
1847;SDS011;924;52.448;13.356;2023-04-10T03:38:04;37.20;;;27.97;;
1847;SDS011;924;52.448;13.356;2023-04-10T03:40:30;32.03;;;27.00;;
1847;SDS011;924;52.448;13.356;2023-04-10T03:42:55;39.33;;;25.37;;
1847;SDS011;924;52.448;13.356;2023-04-10T03:45:20;33.83;;;25.77;;
1847;SDS011;924;52.448;13.356;2023-04-10T03:47:45;30.50;;;25.97;;
1847;SDS011;924;52.448;13.356;2023-04-10T03:50:11;35.90;;;27.53;;
1847;SDS011;924;52.448;13.356;2023-04-10T03:52:36;35.50;;;26.97;;
1847;SDS011;924;52.448;13.356;2023-04-10T03:55:01;32.27;;;26.17;;
1847;SDS011;924;52.448;13.356;2023-04-10T03:57:26;33.17;;;26.13;;
1847;SDS011;924;52.448;13.356;2023-04-10T03:59:52;36.87;;;25.70;;
1847;SDS011;924;52.448;13.356;2023-04-10T04:02:17;32.70;;;26.40;;
1847;SDS011;924;52.448;13.356;2023-04-10T04:04:42;31.70;;;27.73;;
1847;SDS011;924;52.448;13.356;2023-04-10T04:07:07;34.70;;;27.17;;
1847;SDS011;924;52.448;13.356;2023-04-10T04:09:34;32.93;;;27.30;;
1847;SDS011;924;52.448;13.356;2023-04-10T04:11:59;33.70;;;26.97;;
1847;SDS011;924;52.448;13.356;2023-04-10T04:14:25;30.13;;;25.80;;
1847;SDS011;924;52.448;13.356;2023-04-10T04:16:50;32.77;;;25.30;;
1847;SDS011;924;52.448;13.356;2023-04-10T04:19:15;36.93;;;28.23;;
1847;SDS011;924;52.448;13.356;2023-04-10T04:21:40;31.20;;;25.63;;
1847;SDS011;924;52.448;13.356;2023-04-10T04:24:05;32.47;;;27.60;;
1847;SDS011;924;52.448;13.356;2023-04-10T04:26:31;37.80;;;27.67;;
1847;SDS011;924;52.448;13.356;2023-04-10T04:28:56;36.80;;;28.20;;
1847;SDS011;924;52.448;13.356;2023-04-10T04:31:21;32.43;;;27.50;;
1847;SDS011;924;52.448;13.356;2023-04-10T04:33:48;34.63;;;28.83;;
1847;SDS011;924;52.448;13.356;2023-04-10T04:36:13;30.80;;;25.60;;
1847;SDS011;924;52.448;13.356;2023-04-10T04:38:38;36.77;;;27.73;;
1847;SDS011;924;52.448;13.356;2023-04-10T04:41:03;32.90;;;27.20;;
1847;SDS011;924;52.448;13.356;2023-04-10T04:43:29;32.47;;;29.00;;
1847;SDS011;924;52.448;13.356;2023-04-10T04:45:54;35.93;;;29.07;;
1847;SDS011;924;52.448;13.356;2023-04-10T04:48:19;37.53;;;30.13;;
1847;SDS011;924;52.448;13.356;2023-04-10T04:50:44;35.77;;;29.33;;
1847;SDS011;924;52.448;13.356;2023-04-10T04:53:10;35.27;;;29.30;;
1847;SDS011;924;52.448;13.356;2023-04-10T04:55:35;38.40;;;27.97;;
1847;SDS011;924;52.448;13.356;2023-04-10T04:58:00;33.30;;;27.40;;
1847;SDS011;924;52.448;13.356;2023-04-10T05:00:26;35.83;;;29.20;;
1847;SDS011;924;52.448;13.356;2023-04-10T05:02:51;39.13;;;29.87;;
1847;SDS011;924;52.448;13.356;2023-04-10T05:05:16;38.17;;;30.33;;
1847;SDS011;924;52.448;13.356;2023-04-10T05:07:41;33.57;;;29.93;;
1847;SDS011;924;52.448;13.356;2023-04-10T05:10:07;33.13;;;29.33;;
1847;SDS011;924;52.448;13.356;2023-04-10T05:12:32;40.40;;;33.30;;
1847;SDS011;924;52.448;13.356;2023-04-10T05:14:57;40.63;;;32.47;;
1847;SDS011;924;52.448;13.356;2023-04-10T05:17:22;38.97;;;32.30;;
1847;SDS011;924;52.448;13.356;2023-04-10T05:19:48;36.10;;;30.87;;
1847;SDS011;924;52.448;13.356;2023-04-10T05:22:13;42.70;;;33.97;;
1847;SDS011;924;52.448;13.356;2023-04-10T05:24:38;36.73;;;30.73;;
1847;SDS011;924;52.448;13.356;2023-04-10T05:27:03;41.23;;;33.67;;
1847;SDS011;924;52.448;13.356;2023-04-10T05:29:28;41.13;;;32.90;;
1847;SDS011;924;52.448;13.356;2023-04-10T05:31:54;37.07;;;32.13;;
1847;SDS011;924;52.448;13.356;2023-04-10T05:34:19;40.87;;;33.10;;
1847;SDS011;924;52.448;13.356;2023-04-10T05:36:44;37.40;;;31.83;;
1847;SDS011;924;52.448;13.356;2023-04-10T05:39:10;37.17;;;32.70;;
1847;SDS011;924;52.448;13.356;2023-04-10T05:41:35;33.97;;;30.37;;
1847;SDS011;924;52.448;13.356;2023-04-10T05:44:00;38.87;;;29.60;;
1847;SDS011;924;52.448;13.356;2023-04-10T05:46:25;32.17;;;28.67;;
1847;SDS011;924;52.448;13.356;2023-04-10T05:48:51;37.67;;;29.00;;
1847;SDS011;924;52.448;13.356;2023-04-10T05:51:16;38.07;;;31.27;;
1847;SDS011;924;52.448;13.356;2023-04-10T05:53:41;36.27;;;28.57;;
1847;SDS011;924;52.448;13.356;2023-04-10T05:56:07;35.20;;;30.60;;
1847;SDS011;924;52.448;13.356;2023-04-10T05:58:32;32.63;;;27.60;;
1847;SDS011;924;52.448;13.356;2023-04-10T06:00:57;30.57;;;27.30;;
1847;SDS011;924;52.448;13.356;2023-04-10T06:03:23;31.63;;;27.30;;
1847;SDS011;924;52.448;13.356;2023-04-10T06:05:48;32.93;;;27.77;;
1847;SDS011;924;52.448;13.356;2023-04-10T06:08:13;36.00;;;27.70;;
1847;SDS011;924;52.448;13.356;2023-04-10T06:10:39;30.20;;;26.67;;
1847;SDS011;924;52.448;13.356;2023-04-10T06:13:04;30.60;;;26.50;;
1847;SDS011;924;52.448;13.356;2023-04-10T06:15:29;34.63;;;25.00;;
1847;SDS011;924;52.448;13.356;2023-04-10T06:17:54;34.73;;;26.67;;
1847;SDS011;924;52.448;13.356;2023-04-10T06:20:20;34.30;;;25.77;;
1847;SDS011;924;52.448;13.356;2023-04-10T06:22:45;34.63;;;28.77;;
1847;SDS011;924;52.448;13.356;2023-04-10T06:25:11;40.53;;;27.17;;
1847;SDS011;924;52.448;13.356;2023-04-10T06:27:36;38.27;;;25.70;;
1847;SDS011;924;52.448;13.356;2023-04-10T06:30:01;31.50;;;26.53;;
1847;SDS011;924;52.448;13.356;2023-04-10T06:32:27;36.20;;;27.80;;
1847;SDS011;924;52.448;13.356;2023-04-10T06:34:52;34.67;;;27.30;;
1847;SDS011;924;52.448;13.356;2023-04-10T06:37:17;38.97;;;28.60;;
1847;SDS011;924;52.448;13.356;2023-04-10T06:39:42;35.00;;;29.20;;
1847;SDS011;924;52.448;13.356;2023-04-10T06:42:08;43.43;;;31.43;;
1847;SDS011;924;52.448;13.356;2023-04-10T06:44:33;35.47;;;30.00;;
1847;SDS011;924;52.448;13.356;2023-04-10T06:46:58;40.17;;;30.30;;
1847;SDS011;924;52.448;13.356;2023-04-10T06:49:23;42.80;;;32.43;;
1847;SDS011;924;52.448;13.356;2023-04-10T06:51:49;39.00;;;28.07;;
1847;SDS011;924;52.448;13.356;2023-04-10T06:54:14;36.23;;;27.47;;
1847;SDS011;924;52.448;13.356;2023-04-10T06:56:39;37.03;;;29.00;;
1847;SDS011;924;52.448;13.356;2023-04-10T06:59:04;38.07;;;29.43;;
1847;SDS011;924;52.448;13.356;2023-04-10T07:01:30;37.23;;;28.60;;
1847;SDS011;924;52.448;13.356;2023-04-10T07:03:55;36.13;;;28.10;;
1847;SDS011;924;52.448;13.356;2023-04-10T07:06:20;43.43;;;30.63;;
1847;SDS011;924;52.448;13.356;2023-04-10T07:08:47;42.20;;;32.00;;
1847;SDS011;924;52.448;13.356;2023-04-10T07:11:12;44.37;;;33.80;;
1847;SDS011;924;52.448;13.356;2023-04-10T07:13:37;40.33;;;30.80;;
1847;SDS011;924;52.448;13.356;2023-04-10T07:16:04;38.80;;;30.90;;
1847;SDS011;924;52.448;13.356;2023-04-10T07:18:29;41.27;;;32.50;;
1847;SDS011;924;52.448;13.356;2023-04-10T07:20:55;37.50;;;30.53;;
1847;SDS011;924;52.448;13.356;2023-04-10T07:23:20;41.30;;;32.03;;
1847;SDS011;924;52.448;13.356;2023-04-10T07:25:46;43.70;;;32.30;;
1847;SDS011;924;52.448;13.356;2023-04-10T07:28:11;37.57;;;28.90;;
1847;SDS011;924;52.448;13.356;2023-04-10T07:30:36;38.97;;;30.10;;
1847;SDS011;924;52.448;13.356;2023-04-10T07:33:02;40.83;;;30.10;;
1847;SDS011;924;52.448;13.356;2023-04-10T07:35:27;36.80;;;29.30;;
1847;SDS011;924;52.448;13.356;2023-04-10T07:37:52;38.70;;;28.67;;
1847;SDS011;924;52.448;13.356;2023-04-10T07:40:18;35.87;;;28.43;;
1847;SDS011;924;52.448;13.356;2023-04-10T07:42:43;34.47;;;29.67;;
1847;SDS011;924;52.448;13.356;2023-04-10T07:45:10;34.23;;;29.03;;
1847;SDS011;924;52.448;13.356;2023-04-10T07:47:35;42.50;;;30.00;;
1847;SDS011;924;52.448;13.356;2023-04-10T07:50:00;36.43;;;27.20;;
1847;SDS011;924;52.448;13.356;2023-04-10T07:52:25;34.73;;;28.37;;
1847;SDS011;924;52.448;13.356;2023-04-10T07:54:51;37.33;;;27.73;;
1847;SDS011;924;52.448;13.356;2023-04-10T07:57:16;35.03;;;29.40;;
1847;SDS011;924;52.448;13.356;2023-04-10T07:59:41;38.67;;;30.30;;
1847;SDS011;924;52.448;13.356;2023-04-10T08:02:06;36.47;;;29.33;;
1847;SDS011;924;52.448;13.356;2023-04-10T08:04:32;37.90;;;31.53;;
1847;SDS011;924;52.448;13.356;2023-04-10T08:06:57;39.93;;;29.30;;
1847;SDS011;924;52.448;13.356;2023-04-10T08:09:22;37.70;;;29.47;;
1847;SDS011;924;52.448;13.356;2023-04-10T08:11:47;38.30;;;28.23;;
1847;SDS011;924;52.448;13.356;2023-04-10T08:14:13;35.80;;;30.57;;
1847;SDS011;924;52.448;13.356;2023-04-10T08:16:38;32.83;;;26.47;;
1847;SDS011;924;52.448;13.356;2023-04-10T08:19:03;38.00;;;28.83;;
1847;SDS011;924;52.448;13.356;2023-04-10T08:21:29;32.47;;;27.30;;
1847;SDS011;924;52.448;13.356;2023-04-10T08:23:56;32.30;;;26.70;;
1847;SDS011;924;52.448;13.356;2023-04-10T08:26:22;32.10;;;25.07;;
1847;SDS011;924;52.448;13.356;2023-04-10T08:28:48;32.60;;;27.00;;
1847;SDS011;924;52.448;13.356;2023-04-10T08:31:14;31.90;;;27.17;;
1847;SDS011;924;52.448;13.356;2023-04-10T08:33:40;30.70;;;23.90;;
1847;SDS011;924;52.448;13.356;2023-04-10T08:36:05;32.83;;;23.50;;
1847;SDS011;924;52.448;13.356;2023-04-10T08:38:31;30.50;;;24.47;;
1847;SDS011;924;52.448;13.356;2023-04-10T08:40:56;28.37;;;24.63;;
1847;SDS011;924;52.448;13.356;2023-04-10T08:43:21;32.07;;;24.23;;
1847;SDS011;924;52.448;13.356;2023-04-10T08:45:47;29.27;;;23.50;;
1847;SDS011;924;52.448;13.356;2023-04-10T08:48:12;30.00;;;25.57;;
1847;SDS011;924;52.448;13.356;2023-04-10T08:50:40;28.83;;;25.80;;
1847;SDS011;924;52.448;13.356;2023-04-10T08:53:10;29.60;;;24.73;;
1847;SDS011;924;52.448;13.356;2023-04-10T08:55:35;32.30;;;25.03;;
1847;SDS011;924;52.448;13.356;2023-04-10T08:58:01;29.80;;;23.67;;
1847;SDS011;924;52.448;13.356;2023-04-10T09:00:27;27.33;;;23.50;;
1847;SDS011;924;52.448;13.356;2023-04-10T09:02:53;26.33;;;23.57;;
1847;SDS011;924;52.448;13.356;2023-04-10T09:05:21;26.00;;;23.07;;
1847;SDS011;924;52.448;13.356;2023-04-10T09:07:47;25.37;;;22.70;;
1847;SDS011;924;52.448;13.356;2023-04-10T09:10:13;24.43;;;22.07;;
1847;SDS011;924;52.448;13.356;2023-04-10T09:12:44;25.87;;;21.53;;
1847;SDS011;924;52.448;13.356;2023-04-10T09:15:10;21.13;;;18.90;;
1847;SDS011;924;52.448;13.356;2023-04-10T09:17:36;22.73;;;20.43;;
1847;SDS011;924;52.448;13.356;2023-04-10T09:20:01;21.93;;;19.07;;
1847;SDS011;924;52.448;13.356;2023-04-10T09:22:30;21.03;;;17.67;;
1847;SDS011;924;52.448;13.356;2023-04-10T09:24:57;21.73;;;19.43;;
1847;SDS011;924;52.448;13.356;2023-04-10T09:27:27;23.13;;;19.33;;
1847;SDS011;924;52.448;13.356;2023-04-10T09:29:53;22.77;;;19.23;;
1847;SDS011;924;52.448;13.356;2023-04-10T09:35:02;19.70;;;17.40;;
1847;SDS011;924;52.448;13.356;2023-04-10T09:37:32;23.50;;;18.23;;
1847;SDS011;924;52.448;13.356;2023-04-10T09:39:57;22.67;;;20.27;;
1847;SDS011;924;52.448;13.356;2023-04-10T09:42:32;21.33;;;17.93;;
1847;SDS011;924;52.448;13.356;2023-04-10T09:44:57;19.80;;;17.03;;
1847;SDS011;924;52.448;13.356;2023-04-10T09:47:23;19.40;;;16.47;;
1847;SDS011;924;52.448;13.356;2023-04-10T09:49:52;18.10;;;15.57;;
1847;SDS011;924;52.448;13.356;2023-04-10T09:54:50;21.83;;;17.17;;
1847;SDS011;924;52.448;13.356;2023-04-10T09:57:16;24.63;;;16.53;;
1847;SDS011;924;52.448;13.356;2023-04-10T09:59:43;21.13;;;16.27;;
1847;SDS011;924;52.448;13.356;2023-04-10T10:02:11;19.27;;;16.07;;
1847;SDS011;924;52.448;13.356;2023-04-10T10:04:37;22.00;;;16.87;;
1847;SDS011;924;52.448;13.356;2023-04-10T10:07:03;16.10;;;14.20;;
1847;SDS011;924;52.448;13.356;2023-04-10T10:09:28;16.03;;;13.77;;
1847;SDS011;924;52.448;13.356;2023-04-10T10:11:53;16.13;;;14.43;;
1847;SDS011;924;52.448;13.356;2023-04-10T10:14:19;18.77;;;14.00;;
1847;SDS011;924;52.448;13.356;2023-04-10T10:16:46;17.80;;;14.90;;
1847;SDS011;924;52.448;13.356;2023-04-10T10:21:39;22.47;;;15.30;;
1847;SDS011;924;52.448;13.356;2023-04-10T10:24:07;19.73;;;15.80;;
1847;SDS011;924;52.448;13.356;2023-04-10T10:26:34;16.93;;;13.97;;
1847;SDS011;924;52.448;13.356;2023-04-10T10:29:03;18.00;;;12.50;;
1847;SDS011;924;52.448;13.356;2023-04-10T10:31:29;15.13;;;12.40;;
1847;SDS011;924;52.448;13.356;2023-04-10T10:33:57;13.40;;;11.60;;
1847;SDS011;924;52.448;13.356;2023-04-10T10:36:26;16.83;;;13.43;;
1847;SDS011;924;52.448;13.356;2023-04-10T10:39:41;15.70;;;11.60;;
1847;SDS011;924;52.448;13.356;2023-04-10T10:41:39;15.13;;;12.10;;
1847;SDS011;924;52.448;13.356;2023-04-10T10:52:35;12.20;;;10.80;;
1847;SDS011;924;52.448;13.356;2023-04-10T10:55:17;14.50;;;11.00;;
1847;SDS011;924;52.448;13.356;2023-04-10T10:57:46;13.80;;;10.40;;
1847;SDS011;924;52.448;13.356;2023-04-10T11:00:12;16.77;;;11.50;;
1847;SDS011;924;52.448;13.356;2023-04-10T11:02:37;15.93;;;12.10;;
1847;SDS011;924;52.448;13.356;2023-04-10T11:05:03;13.47;;;12.07;;
1847;SDS011;924;52.448;13.356;2023-04-10T11:10:11;14.87;;;11.27;;
1847;SDS011;924;52.448;13.356;2023-04-10T11:13:13;12.93;;;11.10;;
1847;SDS011;924;52.448;13.356;2023-04-10T11:15:22;12.13;;;10.83;;
1847;SDS011;924;52.448;13.356;2023-04-10T11:17:51;12.33;;;10.50;;
1847;SDS011;924;52.448;13.356;2023-04-10T11:20:18;13.40;;;10.77;;
1847;SDS011;924;52.448;13.356;2023-04-10T11:25:48;13.77;;;12.37;;
1847;SDS011;924;52.448;13.356;2023-04-10T11:28:33;13.27;;;10.93;;
1847;SDS011;924;52.448;13.356;2023-04-10T11:33:39;12.07;;;10.77;;
1847;SDS011;924;52.448;13.356;2023-04-10T11:36:05;11.50;;;10.30;;
1847;SDS011;924;52.448;13.356;2023-04-10T11:38:30;12.43;;;10.53;;
1847;SDS011;924;52.448;13.356;2023-04-10T11:40:57;11.70;;;10.07;;
1847;SDS011;924;52.448;13.356;2023-04-10T11:43:23;14.33;;;11.83;;
1847;SDS011;924;52.448;13.356;2023-04-10T11:45:48;12.70;;;11.40;;
1847;SDS011;924;52.448;13.356;2023-04-10T11:48:14;12.33;;;11.03;;
1847;SDS011;924;52.448;13.356;2023-04-10T11:50:41;11.53;;;10.33;;
1847;SDS011;924;52.448;13.356;2023-04-10T11:53:18;15.17;;;12.47;;
1847;SDS011;924;52.448;13.356;2023-04-10T11:55:44;16.40;;;11.97;;
1847;SDS011;924;52.448;13.356;2023-04-10T11:58:20;12.80;;;11.50;;
1847;SDS011;924;52.448;13.356;2023-04-10T12:00:45;16.20;;;12.50;;
1847;SDS011;924;52.448;13.356;2023-04-10T12:03:29;13.73;;;10.70;;
1847;SDS011;924;52.448;13.356;2023-04-10T12:05:54;14.30;;;10.57;;
1847;SDS011;924;52.448;13.356;2023-04-10T12:08:20;14.10;;;11.07;;
1847;SDS011;924;52.448;13.356;2023-04-10T12:10:45;12.60;;;11.37;;
1847;SDS011;924;52.448;13.356;2023-04-10T12:13:23;11.73;;;10.53;;
1847;SDS011;924;52.448;13.356;2023-04-10T12:15:48;13.03;;;10.40;;
1847;SDS011;924;52.448;13.356;2023-04-10T12:18:13;14.60;;;12.13;;
1847;SDS011;924;52.448;13.356;2023-04-10T12:20:39;11.07;;;9.93;;
1847;SDS011;924;52.448;13.356;2023-04-10T12:23:04;14.33;;;10.23;;
1847;SDS011;924;52.448;13.356;2023-04-10T12:25:30;11.80;;;10.47;;
1847;SDS011;924;52.448;13.356;2023-04-10T12:27:55;11.43;;;9.83;;
1847;SDS011;924;52.448;13.356;2023-04-10T12:30:20;14.10;;;10.10;;
1847;SDS011;924;52.448;13.356;2023-04-10T12:32:49;12.90;;;9.70;;
1847;SDS011;924;52.448;13.356;2023-04-10T12:35:15;15.27;;;11.33;;
1847;SDS011;924;52.448;13.356;2023-04-10T12:37:50;15.20;;;9.93;;
1847;SDS011;924;52.448;13.356;2023-04-10T12:40:16;10.33;;;9.33;;
1847;SDS011;924;52.448;13.356;2023-04-10T12:42:42;9.40;;;8.17;;
1847;SDS011;924;52.448;13.356;2023-04-10T12:45:08;8.67;;;7.60;;
1847;SDS011;924;52.448;13.356;2023-04-10T12:47:44;8.57;;;7.70;;
1847;SDS011;924;52.448;13.356;2023-04-10T12:50:13;8.87;;;7.63;;
1847;SDS011;924;52.448;13.356;2023-04-10T12:52:39;8.87;;;7.93;;
1847;SDS011;924;52.448;13.356;2023-04-10T12:57:36;9.13;;;8.20;;
1847;SDS011;924;52.448;13.356;2023-04-10T13:00:03;7.90;;;7.00;;
1847;SDS011;924;52.448;13.356;2023-04-10T13:02:28;9.10;;;7.90;;
1847;SDS011;924;52.448;13.356;2023-04-10T13:04:53;10.23;;;6.87;;
1847;SDS011;924;52.448;13.356;2023-04-10T13:07:19;9.03;;;6.23;;
1847;SDS011;924;52.448;13.356;2023-04-10T13:09:44;11.53;;;8.57;;
1847;SDS011;924;52.448;13.356;2023-04-10T13:12:10;9.43;;;7.40;;
1847;SDS011;924;52.448;13.356;2023-04-10T13:14:35;9.00;;;7.80;;
1847;SDS011;924;52.448;13.356;2023-04-10T13:17:01;10.80;;;9.67;;
1847;SDS011;924;52.448;13.356;2023-04-10T13:19:26;10.60;;;9.47;;
1847;SDS011;924;52.448;13.356;2023-04-10T13:21:51;13.60;;;9.00;;
1847;SDS011;924;52.448;13.356;2023-04-10T13:24:17;10.93;;;9.60;;
1847;SDS011;924;52.448;13.356;2023-04-10T13:26:42;11.70;;;9.23;;
1847;SDS011;924;52.448;13.356;2023-04-10T13:29:07;12.07;;;9.17;;
1847;SDS011;924;52.448;13.356;2023-04-10T13:31:32;13.00;;;10.10;;
1847;SDS011;924;52.448;13.356;2023-04-10T13:33:57;11.03;;;8.50;;
1847;SDS011;924;52.448;13.356;2023-04-10T13:36:23;13.57;;;10.70;;
1847;SDS011;924;52.448;13.356;2023-04-10T13:38:48;11.20;;;10.10;;
1847;SDS011;924;52.448;13.356;2023-04-10T13:41:13;13.53;;;9.70;;
1847;SDS011;924;52.448;13.356;2023-04-10T13:43:38;9.80;;;8.50;;
1847;SDS011;924;52.448;13.356;2023-04-10T13:46:04;11.60;;;9.40;;
1847;SDS011;924;52.448;13.356;2023-04-10T13:48:29;9.90;;;8.80;;
1847;SDS011;924;52.448;13.356;2023-04-10T13:50:55;12.70;;;9.73;;
1847;SDS011;924;52.448;13.356;2023-04-10T13:53:20;10.10;;;9.10;;
1847;SDS011;924;52.448;13.356;2023-04-10T13:55:46;11.90;;;9.90;;
1847;SDS011;924;52.448;13.356;2023-04-10T13:58:12;10.70;;;9.20;;
1847;SDS011;924;52.448;13.356;2023-04-10T14:00:38;11.93;;;8.50;;
1847;SDS011;924;52.448;13.356;2023-04-10T14:03:03;11.93;;;9.70;;
1847;SDS011;924;52.448;13.356;2023-04-10T14:05:28;10.13;;;8.60;;
1847;SDS011;924;52.448;13.356;2023-04-10T14:07:54;10.13;;;8.97;;
1847;SDS011;924;52.448;13.356;2023-04-10T14:10:22;10.23;;;7.93;;
1847;SDS011;924;52.448;13.356;2023-04-10T14:12:47;11.40;;;8.70;;
1847;SDS011;924;52.448;13.356;2023-04-10T14:15:12;9.60;;;8.60;;
1847;SDS011;924;52.448;13.356;2023-04-10T14:17:38;9.70;;;8.67;;
1847;SDS011;924;52.448;13.356;2023-04-10T14:20:03;9.83;;;8.10;;
1847;SDS011;924;52.448;13.356;2023-04-10T14:22:28;11.60;;;8.53;;
1847;SDS011;924;52.448;13.356;2023-04-10T14:24:55;10.07;;;7.97;;
1847;SDS011;924;52.448;13.356;2023-04-10T14:27:20;9.60;;;8.60;;
1847;SDS011;924;52.448;13.356;2023-04-10T14:29:46;9.30;;;8.10;;
1847;SDS011;924;52.448;13.356;2023-04-10T14:32:11;10.50;;;8.00;;
1847;SDS011;924;52.448;13.356;2023-04-10T14:34:36;9.37;;;8.30;;
1847;SDS011;924;52.448;13.356;2023-04-10T14:37:01;9.20;;;8.37;;
1847;SDS011;924;52.448;13.356;2023-04-10T14:39:26;8.77;;;7.90;;
1847;SDS011;924;52.448;13.356;2023-04-10T14:41:52;10.93;;;9.10;;
1847;SDS011;924;52.448;13.356;2023-04-10T14:44:17;11.20;;;9.40;;
1847;SDS011;924;52.448;13.356;2023-04-10T14:46:42;14.33;;;10.33;;
1847;SDS011;924;52.448;13.356;2023-04-10T14:49:08;10.67;;;9.57;;
1847;SDS011;924;52.448;13.356;2023-04-10T14:51:33;12.40;;;10.00;;
1847;SDS011;924;52.448;13.356;2023-04-10T14:53:58;9.83;;;8.77;;
1847;SDS011;924;52.448;13.356;2023-04-10T14:56:24;10.63;;;9.10;;
1847;SDS011;924;52.448;13.356;2023-04-10T14:58:49;12.60;;;10.03;;
1847;SDS011;924;52.448;13.356;2023-04-10T15:01:15;10.87;;;9.77;;
1847;SDS011;924;52.448;13.356;2023-04-10T15:03:40;10.30;;;9.17;;
1847;SDS011;924;52.448;13.356;2023-04-10T15:06:05;11.60;;;9.30;;
1847;SDS011;924;52.448;13.356;2023-04-10T15:08:31;9.67;;;8.67;;
1847;SDS011;924;52.448;13.356;2023-04-10T15:10:56;11.90;;;10.37;;
1847;SDS011;924;52.448;13.356;2023-04-10T15:13:21;10.80;;;9.70;;
1847;SDS011;924;52.448;13.356;2023-04-10T15:15:47;10.87;;;9.67;;
1847;SDS011;924;52.448;13.356;2023-04-10T15:18:13;12.03;;;10.77;;
1847;SDS011;924;52.448;13.356;2023-04-10T15:20:39;10.73;;;9.70;;
1847;SDS011;924;52.448;13.356;2023-04-10T15:23:05;9.80;;;8.73;;